Time;durP1;ratioP1;P1;durP2;ratioP2;P2;SDS_P1;SDS_P2;PMS_P1;PMS_P2;Temp;Humidity;BMP_temperature;BMP_pressure;BME280_temperature;BME280_humidity;BME280_pressure;Samples;Min_cycle;Max_cycle;Signal;HPM_P1;HPM_P2
2023/06/13 00:02:13;;;;;;;4.73;4.30;;;;;;;;;;5007063;28;20207;-81
2023/06/13 00:04:43;;;;;;;4.60;4.20;;;;;;;;;;5011389;28;20672;-81
2023/06/13 00:07:10;;;;;;;4.90;4.10;;;;;;;;;;5007070;28;20227;-81
2023/06/13 00:09:37;;;;;;;6.73;4.30;;;;;;;;;;5010894;28;20622;-81
2023/06/13 00:12:05;;;;;;;4.40;4.00;;;;;;;;;;5011873;28;20204;-81
2023/06/13 00:14:32;;;;;;;5.70;4.10;;;;;;;;;;5003155;28;20239;-81
2023/06/13 00:17:01;;;;;;;5.33;4.07;;;;;;;;;;5010282;28;20203;-81
2023/06/13 00:19:28;;;;;;;6.20;4.00;;;;;;;;;;5002086;28;20231;-81
2023/06/13 00:21:57;;;;;;;4.90;4.40;;;;;;;;;;5007000;28;20207;-81
2023/06/13 00:24:24;;;;;;;8.13;4.37;;;;;;;;;;5000692;28;20578;-81
2023/06/13 00:26:51;;;;;;;5.00;4.03;;;;;;;;;;5012428;28;20242;-81
2023/06/13 00:29:18;;;;;;;5.23;4.50;;;;;;;;;;5004535;28;20246;-81
2023/06/13 00:31:45;;;;;;;8.07;5.00;;;;;;;;;;5004994;28;20215;-81
2023/06/13 00:34:12;;;;;;;7.10;4.43;;;;;;;;;;5006206;28;20760;-81
2023/06/13 00:36:43;;;;;;;5.50;4.27;;;;;;;;;;5009421;28;20200;-81
2023/06/13 00:39:12;;;;;;;4.57;3.87;;;;;;;;;;5008728;28;20322;-81
2023/06/13 00:41:39;;;;;;;4.80;4.30;;;;;;;;;;5014987;28;20207;-81
2023/06/13 00:44:07;;;;;;;7.17;4.10;;;;;;;;;;5008598;28;20379;-81
2023/06/13 00:46:35;;;;;;;4.37;3.87;;;;;;;;;;5010099;28;20227;-81
2023/06/13 00:49:04;;;;;;;4.53;3.80;;;;;;;;;;5003230;28;20213;-81
2023/06/13 00:51:33;;;;;;;7.27;4.10;;;;;;;;;;4995004;28;20619;-81
2023/06/13 00:54:01;;;;;;;5.13;4.00;;;;;;;;;;5004808;28;20208;-81
2023/06/13 00:56:30;;;;;;;4.97;4.20;;;;;;;;;;4999213;28;20207;-81
2023/06/13 00:58:58;;;;;;;4.83;3.60;;;;;;;;;;5009543;28;20219;-81
2023/06/13 01:01:27;;;;;;;4.70;4.03;;;;;;;;;;5014173;28;20204;-81
2023/06/13 01:03:55;;;;;;;4.40;3.90;;;;;;;;;;5013232;28;20215;-81
2023/06/13 01:06:24;;;;;;;4.30;3.90;;;;;;;;;;5004771;28;20224;-81
2023/06/13 01:08:52;;;;;;;6.10;3.87;;;;;;;;;;5003643;28;20212;-81
2023/06/13 01:11:21;;;;;;;5.57;4.27;;;;;;;;;;5013967;28;20747;-81
2023/06/13 01:13:53;;;;;;;4.70;4.20;;;;;;;;;;5008757;28;20215;-81
2023/06/13 01:16:23;;;;;;;4.83;3.80;;;;;;;;;;5004963;28;20654;-81
2023/06/13 01:18:52;;;;;;;4.20;3.80;;;;;;;;;;5004719;28;20267;-81
2023/06/13 01:21:20;;;;;;;4.50;4.10;;;;;;;;;;5002753;28;20227;-81
2023/06/13 01:23:50;;;;;;;5.47;4.10;;;;;;;;;;5002104;28;20729;-81
2023/06/13 01:26:24;;;;;;;4.37;3.97;;;;;;;;;;5014126;28;20756;-81
2023/06/13 01:28:52;;;;;;;6.03;3.77;;;;;;;;;;5012673;28;20210;-81
2023/06/13 01:31:21;;;;;;;4.23;3.83;;;;;;;;;;5007257;28;20211;-81
2023/06/13 01:33:49;;;;;;;9.60;4.50;;;;;;;;;;4996721;28;20207;-81
2023/06/13 01:36:16;;;;;;;4.53;4.10;;;;;;;;;;5002432;28;20220;-81
2023/06/13 01:38:44;;;;;;;8.23;4.50;;;;;;;;;;5001754;28;20210;-81
2023/06/13 01:41:11;;;;;;;4.37;3.97;;;;;;;;;;4997454;28;20206;-81
2023/06/13 01:43:38;;;;;;;4.67;4.17;;;;;;;;;;5013492;28;20214;-81
2023/06/13 01:46:09;;;;;;;5.10;4.60;;;;;;;;;;5012434;28;20238;-81
2023/06/13 01:48:42;;;;;;;5.37;4.17;;;;;;;;;;5005528;28;20203;-81
2023/06/13 01:51:15;;;;;;;4.77;4.17;;;;;;;;;;5005393;28;20298;-81
2023/06/13 01:53:46;;;;;;;6.20;4.10;;;;;;;;;;5011347;28;20211;-81
2023/06/13 01:56:16;;;;;;;4.70;4.10;;;;;;;;;;5003364;28;20725;-81
2023/06/13 01:58:45;;;;;;;6.67;4.50;;;;;;;;;;5044343;23;20234;-77
2023/06/13 02:01:14;;;;;;;5.10;4.10;;;;;;;;;;5037094;28;20206;-76
2023/06/13 02:03:41;;;;;;;4.87;4.30;;;;;;;;;;5051954;28;20307;-76
2023/06/13 02:06:09;;;;;;;5.97;5.23;;;;;;;;;;5052417;28;20230;-76
2023/06/13 02:08:36;;;;;;;6.00;4.23;;;;;;;;;;5048756;28;20245;-76
2023/06/13 02:11:03;;;;;;;4.27;3.87;;;;;;;;;;5052845;28;20233;-76
2023/06/13 02:13:30;;;;;;;4.90;4.40;;;;;;;;;;5050186;28;20213;-76
2023/06/13 02:15:57;;;;;;;5.80;3.83;;;;;;;;;;5053174;28;20229;-76
2023/06/13 02:18:27;;;;;;;5.23;4.10;;;;;;;;;;5052631;28;20693;-76
2023/06/13 02:20:54;;;;;;;5.10;4.10;;;;;;;;;;5042984;28;20600;-77
2023/06/13 02:23:23;;;;;;;4.87;4.17;;;;;;;;;;5042334;28;20214;-77
2023/06/13 02:25:51;;;;;;;4.60;4.10;;;;;;;;;;5053777;28;20254;-76
2023/06/13 02:28:18;;;;;;;6.57;3.90;;;;;;;;;;5052958;28;20711;-76
2023/06/13 02:30:46;;;;;;;5.97;4.23;;;;;;;;;;5052020;28;20237;-76
2023/06/13 02:33:14;;;;;;;5.50;4.67;;;;;;;;;;5035979;28;20552;-77
2023/06/13 02:35:43;;;;;;;4.80;4.20;;;;;;;;;;5044521;28;20705;-76
2023/06/13 02:38:10;;;;;;;4.90;4.40;;;;;;;;;;5037160;28;20237;-76
2023/06/13 02:40:38;;;;;;;5.57;3.77;;;;;;;;;;5051675;28;20275;-76
2023/06/13 02:43:05;;;;;;;5.83;4.60;;;;;;;;;;5044188;28;20270;-78
2023/06/13 02:45:32;;;;;;;5.33;4.37;;;;;;;;;;5039356;28;20893;-79
2023/06/13 02:47:59;;;;;;;7.70;4.67;;;;;;;;;;5041596;28;20227;-79
2023/06/13 02:50:26;;;;;;;4.97;4.47;;;;;;;;;;5048637;28;20724;-78
2023/06/13 02:52:55;;;;;;;5.37;4.27;;;;;;;;;;5048984;28;20661;-79
2023/06/13 02:55:22;;;;;;;5.37;4.10;;;;;;;;;;5050233;28;20252;-78
2023/06/13 02:57:49;;;;;;;5.73;4.43;;;;;;;;;;5039953;28;20218;-79
2023/06/13 03:00:16;;;;;;;8.23;4.50;;;;;;;;;;5043717;28;20226;-79
2023/06/13 03:02:44;;;;;;;5.37;4.47;;;;;;;;;;5044653;28;20695;-78
2023/06/13 03:05:14;;;;;;;6.20;4.40;;;;;;;;;;5039401;28;20279;-79
2023/06/13 03:07:42;;;;;;;6.03;5.00;;;;;;;;;;5043615;28;20214;-78
2023/06/13 03:10:11;;;;;;;5.00;4.47;;;;;;;;;;5048920;28;20276;-79
2023/06/13 03:12:39;;;;;;;8.10;4.80;;;;;;;;;;5052061;28;20230;-79
2023/06/13 03:15:06;;;;;;;6.70;4.80;;;;;;;;;;5050307;28;20268;-78
2023/06/13 03:17:37;;;;;;;13.13;5.10;;;;;;;;;;5032927;28;20217;-79
2023/06/13 03:20:05;;;;;;;8.27;4.97;;;;;;;;;;5037603;28;20278;-79
2023/06/13 03:22:32;;;;;;;9.73;5.17;;;;;;;;;;5043081;28;20217;-78
2023/06/13 03:25:04;;;;;;;7.00;5.23;;;;;;;;;;5034431;28;20790;-79
2023/06/13 03:27:32;;;;;;;5.83;4.90;;;;;;;;;;5051194;28;20309;-79
2023/06/13 03:29:59;;;;;;;5.57;4.97;;;;;;;;;;5051032;28;20265;-79
2023/06/13 03:32:26;;;;;;;6.70;5.00;;;;;;;;;;5051293;28;20671;-79
2023/06/13 03:34:53;;;;;;;5.93;4.73;;;;;;;;;;5042646;28;20226;-78
2023/06/13 03:37:20;;;;;;;9.20;5.03;;;;;;;;;;5043534;28;20206;-78
2023/06/13 03:39:48;;;;;;;7.10;5.33;;;;;;;;;;5050832;28;20234;-79
2023/06/13 03:42:15;;;;;;;7.47;5.07;;;;;;;;;;5047842;28;20207;-79
2023/06/13 03:44:46;;;;;;;9.83;4.70;;;;;;;;;;5038805;28;20774;-78
2023/06/13 03:47:14;;;;;;;7.73;5.60;;;;;;;;;;5035072;28;20250;-78
2023/06/13 03:49:42;;;;;;;11.43;5.03;;;;;;;;;;5051852;28;20240;-78
2023/06/13 03:52:09;;;;;;;6.53;5.50;;;;;;;;;;5051273;28;20275;-79
2023/06/13 03:54:36;;;;;;;9.27;5.30;;;;;;;;;;5050640;28;20309;-79
2023/06/13 03:57:06;;;;;;;9.50;5.70;;;;;;;;;;5034694;28;20207;-79
2023/06/13 03:59:35;;;;;;;7.10;5.07;;;;;;;;;;5044545;28;20241;-78
2023/06/13 04:02:03;;;;;;;7.03;4.70;;;;;;;;;;5050518;28;20671;-78
2023/06/13 04:04:32;;;;;;;7.87;5.40;;;;;;;;;;5045987;28;20232;-79
2023/06/13 04:07:05;;;;;;;7.53;5.57;;;;;;;;;;5042466;28;20226;-79
2023/06/13 04:09:36;;;;;;;7.73;4.90;;;;;;;;;;5035449;28;20245;-79
2023/06/13 04:12:06;;;;;;;6.70;5.40;;;;;;;;;;5051155;28;20305;-79
2023/06/13 04:14:33;;;;;;;6.40;5.47;;;;;;;;;;5046580;28;20241;-78
2023/06/13 04:17:01;;;;;;;6.90;5.33;;;;;;;;;;5045838;28;20209;-78
2023/06/13 04:19:31;;;;;;;8.10;4.80;;;;;;;;;;5043825;28;20233;-78
2023/06/13 04:21:59;;;;;;;8.40;5.17;;;;;;;;;;5042881;28;20211;-78
2023/06/13 04:24:26;;;;;;;10.43;5.53;;;;;;;;;;5045892;28;20230;-78
2023/06/13 04:26:54;;;;;;;6.20;5.50;;;;;;;;;;5047322;28;20639;-78
2023/06/13 04:29:25;;;;;;;6.20;5.40;;;;;;;;;;5042548;28;20268;-79
2023/06/13 04:31:53;;;;;;;6.30;5.20;;;;;;;;;;5041720;28;20215;-78
2023/06/13 04:34:23;;;;;;;7.87;5.50;;;;;;;;;;5037876;28;20232;-78
2023/06/13 04:36:55;;;;;;;10.53;5.77;;;;;;;;;;5056886;28;20660;-78
2023/06/13 04:39:24;;;;;;;6.90;6.00;;;;;;;;;;5046606;28;20225;-78
2023/06/13 04:41:55;;;;;;;8.63;5.90;;;;;;;;;;5041436;28;20211;-79
2023/06/13 04:44:25;;;;;;;8.17;6.70;;;;;;;;;;5038056;28;20222;-78
2023/06/13 04:46:57;;;;;;;13.93;6.60;;;;;;;;;;5042655;28;20256;-79
2023/06/13 04:49:25;;;;;;;14.00;6.23;;;;;;;;;;5049391;28;20379;-79
2023/06/13 04:51:54;;;;;;;11.30;5.83;;;;;;;;;;5034732;28;20214;-78
2023/06/13 04:54:21;;;;;;;10.03;6.10;;;;;;;;;;5037622;28;20226;-78
2023/06/13 04:56:49;;;;;;;7.60;5.73;;;;;;;;;;5054224;28;20664;-78
2023/06/13 04:59:16;;;;;;;9.87;6.33;;;;;;;;;;5045353;28;20299;-78
2023/06/13 05:01:43;;;;;;;8.07;5.47;;;;;;;;;;5046999;28;20829;-78
2023/06/13 05:04:10;;;;;;;8.80;5.63;;;;;;;;;;5050211;28;20738;-79
2023/06/13 05:06:38;;;;;;;8.73;5.67;;;;;;;;;;5055197;28;20230;-78
2023/06/13 05:09:07;;;;;;;12.60;5.67;;;;;;;;;;5054058;28;20230;-78
2023/06/13 05:11:35;;;;;;;8.60;4.80;;;;;;;;;;5052204;28;20213;-79
2023/06/13 05:14:02;;;;;;;8.07;5.93;;;;;;;;;;5048429;28;20238;-79
2023/06/13 05:16:29;;;;;;;10.03;5.60;;;;;;;;;;5050783;28;20205;-79
2023/06/13 05:19:00;;;;;;;7.93;6.10;;;;;;;;;;5049733;28;20232;-79
2023/06/13 05:21:27;;;;;;;6.13;5.47;;;;;;;;;;5042561;28;20723;-79
2023/06/13 05:23:54;;;;;;;7.70;5.43;;;;;;;;;;5034272;28;20586;-79
2023/06/13 05:26:22;;;;;;;8.67;5.17;;;;;;;;;;5053993;28;20309;-79
2023/06/13 05:28:49;;;;;;;8.33;5.57;;;;;;;;;;5045224;28;20317;-79
2023/06/13 05:31:16;;;;;;;6.63;4.97;;;;;;;;;;5053767;28;20687;-79
2023/06/13 05:33:44;;;;;;;6.33;5.07;;;;;;;;;;5053066;28;20676;-79
2023/06/13 05:36:11;;;;;;;6.27;5.40;;;;;;;;;;5045814;28;20216;-79
2023/06/13 05:38:38;;;;;;;6.60;4.30;;;;;;;;;;5040170;28;20261;-80
2023/06/13 05:41:05;;;;;;;6.63;4.60;;;;;;;;;;5041773;28;20707;-79
2023/06/13 05:43:33;;;;;;;6.93;4.40;;;;;;;;;;5041285;28;20203;-79
2023/06/13 05:46:00;;;;;;;8.50;4.73;;;;;;;;;;5041324;28;20725;-79
2023/06/13 05:48:28;;;;;;;6.00;4.80;;;;;;;;;;5041395;28;20227;-79
2023/06/13 05:50:55;;;;;;;5.97;4.57;;;;;;;;;;5041465;28;20234;-79
2023/06/13 05:53:23;;;;;;;4.80;4.30;;;;;;;;;;5043619;28;20234;-79
2023/06/13 05:55:50;;;;;;;4.73;4.00;;;;;;;;;;5052746;28;20265;-79
2023/06/13 05:58:17;;;;;;;5.03;4.40;;;;;;;;;;5044887;28;20230;-79
2023/06/13 06:00:46;;;;;;;7.07;4.20;;;;;;;;;;5039157;28;20822;-79
2023/06/13 06:03:14;;;;;;;9.97;4.37;;;;;;;;;;5046340;28;20726;-79
2023/06/13 06:05:41;;;;;;;5.13;4.00;;;;;;;;;;5043068;28;20258;-77
2023/06/13 06:08:08;;;;;;;8.30;4.00;;;;;;;;;;5042792;28;21005;-77
2023/06/13 06:10:35;;;;;;;4.80;3.30;;;;;;;;;;5045362;28;20233;-76
2023/06/13 06:13:02;;;;;;;5.47;3.47;;;;;;;;;;5043921;28;20205;-76
2023/06/13 06:15:29;;;;;;;6.77;3.13;;;;;;;;;;5048235;28;20230;-77
2023/06/13 06:17:57;;;;;;;3.97;3.53;;;;;;;;;;5048476;28;20316;-78
2023/06/13 06:20:25;;;;;;;3.63;3.00;;;;;;;;;;5047308;28;20574;-78
2023/06/13 06:22:52;;;;;;;3.65;3.10;;;;;;;;;;5044168;28;20214;-77
2023/06/13 06:25:20;;;;;;;4.10;3.13;;;;;;;;;;5042440;28;20222;-77
2023/06/13 06:27:47;;;;;;;7.35;3.20;;;;;;;;;;5049401;28;20309;-76
2023/06/13 06:30:15;;;;;;;4.28;3.28;;;;;;;;;;5043674;28;20254;-77
2023/06/13 06:32:43;;;;;;;4.82;3.60;;;;;;;;;;5038917;28;20222;-77
2023/06/13 06:35:11;;;;;;;4.60;3.47;;;;;;;;;;5049422;28;20257;-77
2023/06/13 06:37:38;;;;;;;3.70;2.80;;;;;;;;;;5039051;28;20627;-77
2023/06/13 06:40:06;;;;;;;4.53;3.22;;;;;;;;;;5040099;28;20234;-78
2023/06/13 06:42:33;;;;;;;4.18;2.90;;;;;;;;;;5043440;28;20241;-77
2023/06/13 06:45:00;;;;;;;3.05;2.72;;;;;;;;;;5045058;28;20849;-77
2023/06/13 06:47:27;;;;;;;3.40;3.10;;;;;;;;;;5043905;28;20226;-77
2023/06/13 06:49:54;;;;;;;4.03;3.05;;;;;;;;;;5046799;28;20234;-77
2023/06/13 06:52:23;;;;;;;3.70;3.10;;;;;;;;;;5042776;28;20222;-76
2023/06/13 06:54:50;;;;;;;3.40;3.10;;;;;;;;;;5042329;28;20230;-77
2023/06/13 06:57:17;;;;;;;3.38;3.08;;;;;;;;;;5043227;28;20268;-77
2023/06/13 06:59:44;;;;;;;3.53;2.90;;;;;;;;;;5043143;28;20233;-77
2023/06/13 07:02:11;;;;;;;4.10;2.92;;;;;;;;;;5041325;28;20692;-77
2023/06/13 07:04:38;;;;;;;4.22;2.92;;;;;;;;;;5037980;28;20225;-77
2023/06/13 07:07:05;;;;;;;3.28;2.97;;;;;;;;;;5045655;28;20225;-75
2023/06/13 07:09:34;;;;;;;4.22;3.03;;;;;;;;;;5039187;28;20242;-75
2023/06/13 07:12:01;;;;;;;3.15;2.75;;;;;;;;;;5047169;28;20210;-76
2023/06/13 07:14:28;;;;;;;4.45;2.90;;;;;;;;;;5038460;28;20226;-75
2023/06/13 07:16:55;;;;;;;8.52;3.28;;;;;;;;;;5037791;28;20210;-75
2023/06/13 07:19:23;;;;;;;4.13;3.00;;;;;;;;;;5049643;28;20234;-75
2023/06/13 07:21:50;;;;;;;4.50;2.50;;;;;;;;;;5041060;28;20219;-75
2023/06/13 07:24:17;;;;;;;2.90;2.65;;;;;;;;;;5030111;28;20267;-75
2023/06/13 07:26:45;;;;;;;4.45;3.63;;;;;;;;;;5036531;28;20205;-75
2023/06/13 07:29:12;;;;;;;3.17;2.88;;;;;;;;;;5050209;28;20245;-75
2023/06/13 07:31:40;;;;;;;4.40;3.05;;;;;;;;;;5050138;28;20300;-76
2023/06/13 07:34:07;;;;;;;5.95;3.13;;;;;;;;;;5042333;28;20756;-76
2023/06/13 07:36:34;;;;;;;2.92;2.63;;;;;;;;;;5047044;28;20233;-76
2023/06/13 07:39:09;;;;;;;4.18;2.72;;;;;;;;;;5049325;28;20242;-75
2023/06/13 07:41:36;;;;;;;3.42;2.60;;;;;;;;;;5037749;28;20214;-76
2023/06/13 07:44:05;;;;;;;4.13;2.95;;;;;;;;;;5038149;28;20238;-76
2023/06/13 07:46:32;;;;;;;4.30;3.08;;;;;;;;;;5054203;28;20214;-79
2023/06/13 07:48:59;;;;;;;3.35;2.90;;;;;;;;;;5058593;28;20234;-79
2023/06/13 07:51:27;;;;;;;3.05;2.75;;;;;;;;;;5045182;28;20219;-79
2023/06/13 07:53:54;;;;;;;4.05;2.75;;;;;;;;;;5039674;28;20214;-80
2023/06/13 07:56:21;;;;;;;3.45;2.67;;;;;;;;;;5034534;28;20688;-79
2023/06/13 07:58:48;;;;;;;4.57;3.03;;;;;;;;;;5071180;23;20230;-81
2023/06/13 08:01:17;;;;;;;5.20;3.05;;;;;;;;;;5042261;28;20244;-81
2023/06/13 08:03:45;;;;;;;4.43;2.83;;;;;;;;;;5049914;28;20218;-82
2023/06/13 08:06:12;;;;;;;4.00;2.60;;;;;;;;;;5044539;28;20206;-82
2023/06/13 08:08:39;;;;;;;5.05;2.63;;;;;;;;;;5056514;28;20237;-81
2023/06/13 08:11:06;;;;;;;10.57;3.00;;;;;;;;;;5058114;28;20222;-81
2023/06/13 08:13:33;;;;;;;2.90;2.60;;;;;;;;;;5052494;28;20508;-82
2023/06/13 08:16:01;;;;;;;4.20;2.97;;;;;;;;;;5053797;28;20229;-82
2023/06/13 08:18:30;;;;;;;3.88;3.08;;;;;;;;;;5058353;28;20226;-81
2023/06/13 08:20:57;;;;;;;3.53;2.97;;;;;;;;;;5061727;28;20278;-81
2023/06/13 08:23:24;;;;;;;3.13;2.83;;;;;;;;;;5062348;28;20682;-81
2023/06/13 08:25:51;;;;;;;5.03;2.60;;;;;;;;;;5061822;28;20312;-80
2023/06/13 08:28:18;;;;;;;3.45;2.47;;;;;;;;;;5061947;28;20262;-81
2023/06/13 08:30:46;;;;;;;2.67;2.22;;;;;;;;;;5053481;28;20309;-81
2023/06/13 08:33:13;;;;;;;3.67;2.72;;;;;;;;;;5053473;28;20212;-82
2023/06/13 08:35:41;;;;;;;3.67;2.67;;;;;;;;;;5044632;28;20243;-81
2023/06/13 08:38:08;;;;;;;4.10;2.40;;;;;;;;;;5061177;28;20216;-80
2023/06/13 08:40:35;;;;;;;3.30;2.30;;;;;;;;;;5045327;28;20252;-80
2023/06/13 08:43:03;;;;;;;2.90;2.67;;;;;;;;;;5052756;28;20214;-81
2023/06/13 08:45:30;;;;;;;2.83;2.58;;;;;;;;;;5052832;28;20245;-81
2023/06/13 08:47:57;;;;;;;2.53;2.33;;;;;;;;;;5053200;28;20234;-82
2023/06/13 08:50:26;;;;;;;2.65;2.33;;;;;;;;;;5053144;28;20510;-81
2023/06/13 08:52:55;;;;;;;3.65;2.90;;;;;;;;;;5053273;28;20218;-81
2023/06/13 08:55:23;;;;;;;2.85;2.65;;;;;;;;;;5052677;28;20257;-80
2023/06/13 08:57:52;;;;;;;2.70;2.45;;;;;;;;;;5053240;28;20228;-80
2023/06/13 09:00:19;;;;;;;3.08;2.45;;;;;;;;;;5052463;28;20299;-80
2023/06/13 09:02:47;;;;;;;4.05;3.15;;;;;;;;;;5053438;28;20217;-80
2023/06/13 09:05:15;;;;;;;2.50;2.30;;;;;;;;;;5052505;28;20233;-81
2023/06/13 09:07:42;;;;;;;3.17;2.70;;;;;;;;;;5053326;28;20230;-81
2023/06/13 09:10:11;;;;;;;7.15;2.67;;;;;;;;;;5052578;28;20240;-81
2023/06/13 09:12:40;;;;;;;4.65;2.90;;;;;;;;;;5053353;28;20210;-81
2023/06/13 09:15:07;;;;;;;4.10;3.25;;;;;;;;;;5053126;28;20234;-80
2023/06/13 09:17:35;;;;;;;3.65;2.60;;;;;;;;;;5054096;28;20198;-80
2023/06/13 09:20:03;;;;;;;4.45;2.33;;;;;;;;;;5057190;28;20240;-82
2023/06/13 09:22:30;;;;;;;3.83;3.05;;;;;;;;;;5055492;28;20226;-91
2023/06/13 09:24:58;;;;;;;3.15;2.47;;;;;;;;;;5056975;28;20712;-81
2023/06/13 09:27:27;;;;;;;3.15;2.58;;;;;;;;;;5052555;28;20210;-81
2023/06/13 09:29:54;;;;;;;3.30;2.30;;;;;;;;;;5060520;28;20233;-81
2023/06/13 09:32:22;;;;;;;6.57;2.47;;;;;;;;;;5052385;28;20221;-81
2023/06/13 09:34:50;;;;;;;2.85;2.45;;;;;;;;;;5052498;28;20637;-81
2023/06/13 09:37:17;;;;;;;3.90;2.80;;;;;;;;;;5052565;28;20217;-81
2023/06/13 09:39:47;;;;;;;3.65;2.35;;;;;;;;;;5052018;28;20229;-80
2023/06/13 09:42:14;;;;;;;8.73;3.15;;;;;;;;;;5052340;28;20225;-81
2023/06/13 09:44:43;;;;;;;2.60;2.40;;;;;;;;;;5051875;28;20664;-81
2023/06/13 09:47:20;;;;;;;3.60;2.50;;;;;;;;;;5045294;28;20214;-81
2023/06/13 09:49:47;;;;;;;7.78;2.58;;;;;;;;;;5051601;28;20225;-81
2023/06/13 09:52:15;;;;;;;2.60;2.40;;;;;;;;;;5052060;28;20221;-80
2023/06/13 09:54:44;;;;;;;4.85;3.08;;;;;;;;;;5051907;28;20333;-81
2023/06/13 09:57:12;;;;;;;2.70;2.50;;;;;;;;;;5053064;28;20245;-81
2023/06/13 09:59:39;;;;;;;2.67;2.42;;;;;;;;;;5051208;28;20233;-83
2023/06/13 10:02:07;;;;;;;3.80;3.15;;;;;;;;;;5059401;28;20684;-82
2023/06/13 10:04:34;;;;;;;6.47;2.67;;;;;;;;;;5051501;28;20237;-84
2023/06/13 10:07:02;;;;;;;2.97;2.40;;;;;;;;;;5052274;28;20206;-84
2023/06/13 10:09:29;;;;;;;2.72;2.42;;;;;;;;;;5051379;28;20253;-85
2023/06/13 10:11:58;;;;;;;4.03;2.63;;;;;;;;;;5052152;28;20217;-84
2023/06/13 10:14:26;;;;;;;2.60;2.40;;;;;;;;;;5051254;28;20248;-82
2023/06/13 10:16:58;;;;;;;4.25;2.60;;;;;;;;;;5051420;28;20206;-84
2023/06/13 10:19:27;;;;;;;4.97;2.50;;;;;;;;;;5053020;28;20242;-82
2023/06/13 10:21:54;;;;;;;6.63;2.47;;;;;;;;;;5067772;28;20210;-82
2023/06/13 10:24:22;;;;;;;2.63;2.42;;;;;;;;;;5053816;28;20237;-79
2023/06/13 10:26:50;;;;;;;2.95;2.75;;;;;;;;;;5051611;28;20206;-80
2023/06/13 10:29:41;;;;;;;5.45;2.55;;;;;;;;;;5050330;28;20249;-78
2023/06/13 10:32:15;;;;;;;3.63;2.47;;;;;;;;;;4994571;28;20216;-79
2023/06/13 10:35:02;;;;;;;2.40;2.20;;;;;;;;;;5059051;28;20308;-79
2023/06/13 10:37:41;;;;;;;3.83;2.72;;;;;;;;;;5051250;28;20212;-78
2023/06/13 10:40:19;;;;;;;3.67;2.53;;;;;;;;;;5050549;28;20267;-78
2023/06/13 10:42:49;;;;;;;2.95;2.55;;;;;;;;;;5051394;28;20213;-78
2023/06/13 10:45:18;;;;;;;2.85;2.38;;;;;;;;;;5050747;28;20734;-79
2023/06/13 10:47:45;;;;;;;6.07;2.80;;;;;;;;;;5043573;28;20213;-81
2023/06/13 10:50:16;;;;;;;2.88;2.67;;;;;;;;;;5050500;28;20233;-81
2023/06/13 10:52:44;;;;;;;2.67;2.38;;;;;;;;;;5045580;28;20249;-81
2023/06/13 10:55:13;;;;;;;2.35;2.10;;;;;;;;;;5050729;28;20711;-81
2023/06/13 10:57:50;;;;;;;8.57;2.38;;;;;;;;;;5046800;28;20206;-81
2023/06/13 11:00:24;;;;;;;4.88;2.88;;;;;;;;;;5051338;28;20234;-81
2023/06/13 11:02:58;;;;;;;6.38;2.75;;;;;;;;;;5050659;28;20268;-81
2023/06/13 11:05:26;;;;;;;2.25;2.15;;;;;;;;;;5050589;28;20264;-81
2023/06/13 11:07:55;;;;;;;4.30;2.63;;;;;;;;;;5050824;28;20210;-81
2023/06/13 11:10:23;;;;;;;4.00;2.38;;;;;;;;;;5050061;28;20269;-80
2023/06/13 11:12:53;;;;;;;3.08;2.30;;;;;;;;;;5044580;28;20216;-80
2023/06/13 11:15:21;;;;;;;7.22;2.70;;;;;;;;;;5049611;28;20276;-81
2023/06/13 11:18:02;;;;;;;3.70;2.53;;;;;;;;;;5050128;28;20259;-81
2023/06/13 11:20:32;;;;;;;2.75;2.42;;;;;;;;;;5047047;28;20226;-81
2023/06/13 11:22:59;;;;;;;4.55;2.70;;;;;;;;;;5049493;28;20202;-81
2023/06/13 11:25:26;;;;;;;5.55;2.45;;;;;;;;;;5049110;28;20222;-80
2023/06/13 11:27:53;;;;;;;4.88;2.55;;;;;;;;;;5049871;28;20217;-81
2023/06/13 11:30:25;;;;;;;4.40;2.92;;;;;;;;;;5049147;28;20225;-81
2023/06/13 11:32:53;;;;;;;2.80;2.22;;;;;;;;;;5049613;28;20206;-82
2023/06/13 11:35:21;;;;;;;17.63;4.43;;;;;;;;;;5049266;28;20623;-81
2023/06/13 11:37:56;;;;;;;2.50;2.30;;;;;;;;;;5049976;28;20214;-81
2023/06/13 11:40:24;;;;;;;4.20;2.55;;;;;;;;;;5048783;28;20233;-82
2023/06/13 11:42:51;;;;;;;2.83;2.60;;;;;;;;;;5049566;28;20567;-81
2023/06/13 11:45:18;;;;;;;5.88;3.13;;;;;;;;;;5049407;28;20236;-81
2023/06/13 11:47:46;;;;;;;4.72;2.90;;;;;;;;;;5041742;28;20202;-81
2023/06/13 11:50:13;;;;;;;3.28;2.53;;;;;;;;;;5051915;28;20229;-81
2023/06/13 11:52:40;;;;;;;3.75;2.47;;;;;;;;;;5049208;28;21636;-81
2023/06/13 11:55:18;;;;;;;3.22;2.53;;;;;;;;;;5049070;28;20230;-81
2023/06/13 11:57:46;;;;;;;2.30;2.20;;;;;;;;;;5049328;28;20206;-81
2023/06/13 12:00:16;;;;;;;4.63;2.58;;;;;;;;;;5048802;28;20264;-81
2023/06/13 12:02:45;;;;;;;2.63;2.33;;;;;;;;;;5049233;28;20698;-81
2023/06/13 12:05:12;;;;;;;3.35;2.60;;;;;;;;;;5049306;28;20230;-81
2023/06/13 12:07:40;;;;;;;4.90;2.38;;;;;;;;;;5049542;28;20210;-81
2023/06/13 12:10:08;;;;;;;2.60;2.38;;;;;;;;;;5049916;28;20233;-81
2023/06/13 12:12:36;;;;;;;3.88;2.50;;;;;;;;;;5049134;28;20209;-81
2023/06/13 12:15:04;;;;;;;2.97;2.45;;;;;;;;;;5048935;28;20253;-81
2023/06/13 12:17:31;;;;;;;3.60;3.00;;;;;;;;;;5049600;28;20213;-81
2023/06/13 12:20:07;;;;;;;2.90;2.42;;;;;;;;;;5048549;28;20237;-81
2023/06/13 12:22:35;;;;;;;3.53;2.40;;;;;;;;;;5048805;28;20292;-83
2023/06/13 12:25:02;;;;;;;5.10;2.67;;;;;;;;;;5048722;28;20242;-81
2023/06/13 12:27:29;;;;;;;5.80;2.40;;;;;;;;;;5049460;28;20216;-79
2023/06/13 12:29:57;;;;;;;2.40;2.20;;;;;;;;;;5048138;28;20646;-80
2023/06/13 12:32:28;;;;;;;3.63;2.30;;;;;;;;;;5048908;28;20210;-80
2023/06/13 12:34:55;;;;;;;4.18;2.50;;;;;;;;;;5048644;28;20229;-80
2023/06/13 12:37:25;;;;;;;3.60;2.35;;;;;;;;;;5049507;28;20240;-80
2023/06/13 12:40:06;;;;;;;3.33;2.60;;;;;;;;;;5043848;28;20614;-80
2023/06/13 12:42:35;;;;;;;2.60;2.40;;;;;;;;;;5050990;28;20213;-79
2023/06/13 12:45:04;;;;;;;4.60;2.60;;;;;;;;;;5048666;28;20230;-79
2023/06/13 12:47:31;;;;;;;3.35;2.58;;;;;;;;;;5041325;28;20221;-81
2023/06/13 12:50:07;;;;;;;3.88;3.10;;;;;;;;;;5050731;28;20230;-80
2023/06/13 12:52:35;;;;;;;2.25;2.10;;;;;;;;;;5051341;28;20206;-80
2023/06/13 12:55:03;;;;;;;3.92;2.60;;;;;;;;;;5052305;28;20236;-80
2023/06/13 12:57:31;;;;;;;2.67;2.33;;;;;;;;;;5052721;28;20206;-80
2023/06/13 12:59:58;;;;;;;2.65;2.20;;;;;;;;;;5053092;28;20248;-80
2023/06/13 13:02:29;;;;;;;4.18;3.28;;;;;;;;;;5055310;28;20209;-80
2023/06/13 13:05:00;;;;;;;2.50;2.30;;;;;;;;;;5055120;28;20564;-80
2023/06/13 13:07:29;;;;;;;3.13;2.60;;;;;;;;;;5052211;28;20202;-79
2023/06/13 13:09:57;;;;;;;3.08;2.72;;;;;;;;;;5059074;28;20240;-82
2023/06/13 13:12:25;;;;;;;4.65;2.20;;;;;;;;;;5055797;28;20217;-80
2023/06/13 13:14:52;;;;;;;7.47;2.50;;;;;;;;;;5052013;28;20226;-79
2023/06/13 13:17:19;;;;;;;4.78;2.60;;;;;;;;;;5052698;28;20671;-80
2023/06/13 13:19:52;;;;;;;3.67;2.30;;;;;;;;;;5051701;28;20229;-79
2023/06/13 13:22:19;;;;;;;2.75;2.22;;;;;;;;;;5051947;28;20206;-80
2023/06/13 13:24:46;;;;;;;3.03;2.40;;;;;;;;;;5045256;28;20722;-80
2023/06/13 13:27:13;;;;;;;2.80;2.60;;;;;;;;;;5051990;28;20213;-80
2023/06/13 13:29:41;;;;;;;2.65;2.10;;;;;;;;;;5051722;28;20241;-80
2023/06/13 13:32:09;;;;;;;2.60;2.40;;;;;;;;;;5054590;28;20477;-80
2023/06/13 13:34:36;;;;;;;4.20;2.85;;;;;;;;;;5058259;28;20233;-80
2023/06/13 13:37:05;;;;;;;2.83;2.55;;;;;;;;;;5051755;28;20260;-80
2023/06/13 13:39:32;;;;;;;4.65;3.15;;;;;;;;;;5051638;28;20236;-79
2023/06/13 13:41:59;;;;;;;3.30;2.60;;;;;;;;;;5053794;28;20202;-79
2023/06/13 13:44:27;;;;;;;2.83;2.55;;;;;;;;;;5051325;28;20241;-80
2023/06/13 13:46:54;;;;;;;6.88;2.80;;;;;;;;;;5043991;28;20656;-79
2023/06/13 13:49:21;;;;;;;4.18;2.63;;;;;;;;;;5051555;28;20241;-80
2023/06/13 13:51:49;;;;;;;3.45;2.65;;;;;;;;;;5053178;28;20202;-79
2023/06/13 13:54:17;;;;;;;4.75;2.97;;;;;;;;;;5051171;28;20238;-79
2023/06/13 13:56:44;;;;;;;3.40;2.83;;;;;;;;;;5051812;28;20221;-80
2023/06/13 13:59:12;;;;;;;3.30;2.25;;;;;;;;;;5050837;28;20238;-80
2023/06/13 14:01:39;;;;;;;3.72;2.35;;;;;;;;;;5051326;28;20213;-80
2023/06/13 14:04:07;;;;;;;3.00;2.58;;;;;;;;;;5050176;28;20234;-79
2023/06/13 14:06:34;;;;;;;2.80;2.55;;;;;;;;;;5050565;28;20210;-79
2023/06/13 14:09:01;;;;;;;5.20;3.00;;;;;;;;;;5043256;28;20295;-80
2023/06/13 14:11:30;;;;;;;4.05;3.10;;;;;;;;;;5058617;28;20667;-78
2023/06/13 14:13:57;;;;;;;3.75;2.90;;;;;;;;;;5050462;28;20722;-77
2023/06/13 14:16:27;;;;;;;3.47;3.20;;;;;;;;;;5051105;28;20233;-77
2023/06/13 14:18:54;;;;;;;2.72;2.45;;;;;;;;;;5042155;28;20226;-77
2023/06/13 14:21:21;;;;;;;3.00;2.70;;;;;;;;;;5056382;28;20675;-77
2023/06/13 14:23:48;;;;;;;2.75;2.45;;;;;;;;;;5051053;28;20264;-78
2023/06/13 14:26:15;;;;;;;3.33;2.83;;;;;;;;;;5050860;28;20773;-77
2023/06/13 14:28:43;;;;;;;3.80;2.70;;;;;;;;;;5050401;28;20234;-79
2023/06/13 14:31:10;;;;;;;6.45;2.80;;;;;;;;;;5050477;28;20232;-78
2023/06/13 14:33:38;;;;;;;2.55;2.35;;;;;;;;;;5050824;28;20221;-78
2023/06/13 14:36:05;;;;;;;4.00;2.50;;;;;;;;;;5050257;28;20225;-77
2023/06/13 14:38:37;;;;;;;4.38;2.78;;;;;;;;;;5050609;28;20237;-78
2023/06/13 14:41:04;;;;;;;4.18;2.58;;;;;;;;;;5051610;28;20310;-78
2023/06/13 14:43:31;;;;;;;2.65;2.45;;;;;;;;;;5053560;28;20552;-78
2023/06/13 14:46:00;;;;;;;3.55;2.70;;;;;;;;;;5050412;28;20245;-77
2023/06/13 14:48:27;;;;;;;2.58;2.38;;;;;;;;;;5050756;28;20226;-78
2023/06/13 14:50:55;;;;;;;2.60;2.40;;;;;;;;;;5049577;28;20230;-78